Aviation Digital Data Service (ADDS)

Output produced by METARs form (0959 UTC 22 May 2015)
found at http://www.aviationweather.gov/adds/metars/
 
KROW 220951Z AUTO 22003KT 10SM BKN006 OVC013 12/10 A3010 RMK AO2 CIG 004V009 SLP162 T01170100
KROW 220851Z AUTO 20004KT 10SM OVC007 11/10 A3010 RMK AO2 SLP162 T01110100 58011
KROW 220822Z AUTO 16004KT 7SM OVC009 11/10 A3011 RMK AO2 T01110100
KROW 220751Z AUTO 00000KT 10SM OVC010 12/10 A3012 RMK AO2 CIG 009V013 SLP170 T01170100
KROW 220721Z AUTO 00000KT 10SM SCT007 BKN014 OVC025 11/10 A3013 RMK AO2 T01110100
KROW 220651Z AUTO 00000KT 10SM BKN008 OVC021 11/10 A3014 RMK AO2 CIG 005V011 SLP176 T01110100 401330106
KROW 220551Z AUTO 00000KT 10SM OVC006 11/09 A3014 RMK AO2 RAE0456 TSE0457 SLP175 P0000 60018 T01110094 10111 20106 58006
KROW 220532Z AUTO 12003KT 10SM OVC005 11/10 A3014 RMK AO2 RAE0456 TSE0457 P0000 T01110100
KROW 220512Z AUTO 00000KT 10SM OVC004 11/10 A3014 RMK AO2 RAE0456 TSE0457 P0000 T01110100
KROW 220503Z AUTO 10003KT 10SM VCTS OVC003 11/10 A3014 RMK AO2 LTG DSNT NE RAE0456 TSE0457 CIG 003V007 P0000 T01110100
KROW 220451Z AUTO 09006KT 10SM -TSRA OVC003 11/10 A3014 RMK AO2 TSB33 SLP178 P0002 T01110100
KROW 220439Z AUTO 00000KT 10SM -TSRA BKN003 OVC065 11/10 A3016 RMK AO2 TSB33 PRESRR P0002 T01110100
KROW 220429Z AUTO 08012KT 10SM VCTS -RA BKN002 OVC065 11/10 A3011 RMK AO2 LTG DSNT SW P0002 T01060100
KROW 220420Z AUTO 07010KT 10SM -RA SCT002 OVC065 11/10 A3011 RMK AO2 LTG DSNT SW PRESFR P0002 T01110100
KROW 220411Z AUTO 03007KT 10SM -RA BKN002 OVC065 11/10 A3015 RMK AO2 LTG DSNT SW P0002 T01110100
KROW 220351Z AUTO 09007KT 7SM RA SCT004 SCT055 OVC070 11/10 A3015 RMK AO2 LTG DSNT NE AND W RAB03 SLP182 P0015 T01110100
KROW 220332Z AUTO 00000KT 5SM RA BR FEW004 BKN019 OVC070 11/11 A3018 RMK AO2 LTG DSNT SW-N RAB03 P0011 T01110106
KROW 220320Z AUTO 29006KT 2SM VCTS +RA BR SCT004 OVC016 11/10 A3020 RMK AO2 LTG DSNT SW-N RAB03 P0008 T01110100
KROW 220317Z AUTO 28007KT 1 3/4SM VCTS +RA BR SCT004 OVC014 11/10 A3020 RMK AO2 LTG DSNT SW-NW RAB03 P0004 T01110100
KROW 220310Z AUTO 26009KT 2SM RA BR OVC006 11/10 A3021 RMK AO2 LTG DSNT SW AND W RAB03 P0001 T01110100
KROW 220251Z AUTO 14003KT 4SM BR BKN004 OVC012 11/10 A3014 RMK AO2 LTG DSNT SW AND W RAE20 SLP176 P0001 60001 T01060100 51012
KROW 220228Z 11007KT 1SM BR BKN003 BKN010 OVC018 11/10 A3011 RMK AO2 SFC VIS 3 RAE20 P0001 T01060100
KROW 220151Z 12006KT 1SM -RA BR FEW004 OVC015 11/10 A3012 RMK AO2 SFC VIS 3 RAB44 SLP171 P0000 T01060100
KROW 220149Z 13008KT 3SM -RA BR FEW006 OVC015 11/10 A3013 RMK AO2 RAB44 P0000
KROW 220138Z 11008KT 7SM SCT006 OVC013 11/09 A3012 RMK AO2 T01060094
KROW 220131Z 12007KT 4SM BR BKN005 OVC011 11/10 A3012 RMK AO2 CIG 003V009 T01060100
KROW 220120Z 11008KT 2SM BR BKN005 OVC012 11/10 A3011 RMK AO2 CIG 003V008 T01060100
KROW 220106Z 10010KT 3SM BR BKN005 OVC010 11/10 A3009 RMK AO2 T01060100
KROW 220051Z 10009KT 2 1/2SM BR BKN006 BKN010 OVC016 11/10 A3010 RMK AO2 RAB06E26 SLP162 P0000 T01060100
KROW 220047Z 11009KT 2 1/2SM BR BKN006 BKN010 OVC017 11/10 A3009 RMK AO2 RAB06E26 P0000
KROW 220029Z 11010KT 3SM BR BKN006 OVC016 11/10 A3011 RMK AO2 RAB06E26 P0000 T01110100
KROW 220011Z 10008KT 2 1/2SM -RA BR BKN005 OVC018 11/10 A3012 RMK AO2 TWR VIS 3 RAB06 P0000 T01110100
KROW 212351Z 13008KT 9SM FEW007 SCT014 OVC020 11/09 A3014 RMK AO2 RAE2254B13E22 SLP175 P0000 60001 T01110094 10122 20111 56017
KROW 212338Z 12008KT 4SM BR FEW007 OVC014 11/10 A3013 RMK AO2 RAE2254B13E22 P0000 T01110100
KROW 212330Z 11011KT 3SM BKN007 BKN012 OVC017 11/10 A3012 RMK AO2 SFC VIS 7 RAE2254B13E22 CIG 005V010 P0000 T01110100
KROW 212317Z 10009KT 3SM -RA BR SCT007 BKN013 OVC020 11/10 A3013 RMK AO2 SFC VIS 5 RAE2254B13 P0000 T01110100
KROW 212302Z 11009KT 3SM BKN007 BKN011 OVC021 12/10 A3013 RMK AO2 SFC VIS 10 RAE2254 P0000 T01170100
KROW 212259Z 11011KT 1 3/4SM SCT007 BKN015 OVC020 12/10 A3013 RMK AO2 SFC VIS 10 RAE54 P0000 T01170100
KROW 212251Z 12011KT 1 3/4SM -RA BR BKN007 OVC015 11/10 A3014 RMK AO2 SFC VIS 3 RAB02E11B44 SLP175 P0000 T01110100
KROW 212155Z 12009KT 1 3/4SM BR BKN006 OVC014 12/10 A3017 RMK AO2 SFC VIS 2 1/2 T01170100
KROW 212151Z 13009KT 2 1/2SM BR BKN004 BKN010 OVC014 12/10 A3018 RMK AO2 RAB14E47 SLP188 P0001 T01170100
KROW 212149Z 12009KT 2 1/2SM BR BKN004 BKN008 OVC012 12/10 A3017 RMK AO2 RAB14E47 P0001
KROW 212143Z 11008KT 2SM -RA BR BKN006 OVC012 12/10 A3018 RMK AO2 RAB14 P0000 T01170100
KROW 212140Z 12008KT 1 1/2SM -RA BR BKN004 OVC009 12/11 A3018 RMK AO2 TWR VIS 2 1/2 RAB14 P0000 T01170106
KROW 212051Z 11009KT 2 1/2SM BR BKN007 OVC014 12/10 A3019 RMK AO2 SFC VIS 5 RAE1958B09E19 SLP193 P0000 60000 T01170100 58013
KROW 212038Z 11008KT 2 1/2SM BR BKN007 OVC012 12/11 A3019 RMK AO2 SFC VIS 4 RAE1958B09E19 CIG 005V011 P0000 T01170106
KROW 212031Z 12010KT 2 1/2SM SCT007 OVC012 12/10 A3019 RMK AO2 SFC VIS 8 RAE1958B09E19 P0000 T01170100
KROW 212017Z 12009KT 2 1/2SM -RA BR BKN007 OVC014 12/11 A3019 RMK AO2 RAE1958B09 P0000 T01170106
KROW 212004Z 12007KT 2 1/2SM BR SCT006 OVC014 12/11 A3020 RMK AO2 SFC VIS 4 RAE1958 P0000 T01170106
KROW 211951Z 11007KT 4SM -RA BR OVC012 12/10 A3021 RMK AO2 RAE14B49 SLP198 P0000 T01170100
KROW 211923Z 12010KT 9SM SCT007 OVC013 12/10 A3022 RMK AO2 RAE14 P0000 T01170100
KROW 211912Z 12008KT 7SM -RA BKN008 OVC013 12/10 A3022 RMK AO2 CIG 004V010 P0000 T01220100
KROW 211851Z 11009KT 3SM -RA BR FEW006 OVC011 12/10 A3022 RMK AO2 RAB48 SLP202 P0000 T01170100
KROW 211842Z 09010KT 8SM BKN009 OVC013 12/10 A3022 RMK AO2 CIG 006V011 T01170100
KROW 211828Z 10006KT 5SM BR OVC011 12/10 A3022 RMK AO2 T01170100
KROW 211800Z 11008KT 6SM BR BKN008 OVC013 12/10 A3024 RMK AO2 T01170100
KROW 211751Z 11008KT 10SM SCT005 BKN013 OVC017 12/10 A3024 RMK AO2 RAE39 SLP206 P0001 60006 T01170100 10117 20106 58001
KROW 211743Z 11008KT 5SM BR SCT004 OVC013 12/10 A3024 RMK AO2 RAE39 P0001 T01170100
KROW 211735Z 09009KT 2 1/2SM -RA BR BKN004 OVC013 12/10 A3024 RMK AO2 P0001 T01170100
KROW 211719Z 12007KT 1 3/4SM -RA BR BKN005 OVC012 12/11 A3024 RMK AO2 P0001 T01170106
KROW 211709Z 11006KT 1 1/2SM -RA BR SCT005 OVC012 12/10 A3025 RMK AO2 P0001 T01170100
KROW 211659Z 11008KT 2SM -RA BR SCT005 OVC012 11/10 A3025 RMK AO2 P0001 T01110100
KROW 211651Z 11008KT 2SM -RA BR BKN004 OVC010 11/10 A3025 RMK AO2 SLP209 P0002 T01110100
KROW 211631Z 10008KT 2SM -RA BR BKN004 OVC010 11/10 A3024 RMK AO2 P0002 T01110100
KROW 211551Z 10008KT 1 3/4SM -RA BR BKN006 OVC015 11/10 A3025 RMK AO2 RAB11E33B43 SLP210 P0001 T01110100
KROW 211546Z 12008KT 1 3/4SM -RA BR BKN006 BKN010 OVC015 11/10 A3025 RMK AO2 RAB11E33B43 P0001
KROW 211535Z 11009KT 2 1/2SM BR FEW006 OVC013 11/10 A3025 RMK AO2 RAB11E33 P0001 T01110100
KROW 211525Z 09008KT 1 1/2SM -RA BR SCT006 OVC013 11/10 A3024 RMK AO2 RAB11 P0001 T01110100
KROW 211515Z 09008KT 2 1/2SM -RA BR SCT006 OVC013 11/10 A3024 RMK AO2 RAB11 P0000 T01110100
KROW 211456Z 10007KT 6SM BR BKN006 BKN012 OVC016 11/10 A3024 RMK AO2 T01110100
KROW 211451Z 10008KT 1 3/4SM BKN006 BKN010 OVC016 11/10 A3024 RMK AO2 SFC VIS 9 RAE15 SLP207 P0001 60002 T01110100 53004
KROW 211442Z 10008KT 1 3/4SM BR BKN004 BKN010 OVC014 11/10 A3024 RMK AO2 SFC VIS 2 RAE15 P0001 T01110100
KROW 211400Z 09010KT 1 1/2SM -RA BR OVC006 11/10 A3024 RMK AO2 TWR VIS 1 3/4 P0001 T01110100
KROW 211351Z 10009KT 1 1/2SM -RA BR BKN004 OVC008 11/10 A3023 RMK AO2 TWR VIS 1 3/4 RAB23 SLP201 P0001 T01110100
KROW 211330Z 09008KT 1 1/2SM -RA BR BKN004 OVC007 11/10 A3023 RMK AO2 TWR VIS 1 3/4 RAB23 CIG 002V006 P0001 T01110100
KROW 211251Z 08009KT 1 3/4SM BR BKN005 OVC016 11/10 A3023 RMK AO2 SFC VIS 2 1/2 SLP193 T01110100
KROW 211248Z 08007KT 3SM BR BKN004 BKN010 OVC016 11/10 A3023 RMK AO2
KROW 211235Z 09009KT 2SM BR BKN004 OVC014 12/11 A3023 RMK AO2 T01170106
KROW 211222Z 07009KT 1 3/4SM BR FEW004 OVC012 12/11 A3021 RMK AO2 T01170106
KROW 211210Z 08007KT 4SM BR SCT004 OVC012 12/11 A3022 RMK AO2 T01170106
KROW 211151Z AUTO 07008KT 4SM BR BKN004 OVC010 12/11 A3020 RMK AO2 SLP182 60000 T01170106 10139 20117 53002
KROW 211051Z AUTO 07008KT 5SM BR BKN004 OVC021 12/11 A3020 RMK AO2 RAB21E30 SLP179 P0000 T01170106
KROW 211041Z AUTO 06009KT 4SM BR BKN004 BKN023 OVC029 12/11 A3019 RMK AO2 RAB21E30 P0000 T01170106
KROW 211010Z AUTO 06009KT 2 1/2SM BR OVC004 12/11 A3020 RMK AO2 T01170106
KROW 220535Z 2206/2306 15007KT P6SM OVC003 
     FM220700 15006KT 3SM BR OVC003 
     FM221600 18010KT 5SM BR OVC015 
     FM222000 18014G22KT P6SM SCT250 
     FM230300 15013KT P6SM SCT005 BKN025